Time;durP1;ratioP1;P1;durP2;ratioP2;P2;SDS_P1;SDS_P2;PMS_P1;PMS_P2;Temp;Humidity;BMP_temperature;BMP_pressure;BME280_temperature;BME280_humidity;BME280_pressure;Samples;Min_cycle;Max_cycle;Signal;HPM_P1;HPM_P2
2022/09/12 00:00:03;;;;;;;25.27;20.30;;;;;;;;;;5051280;28;20649;-71
2022/09/12 00:02:28;;;;;;;24.17;19.48;;;;;;;;;;5050957;28;20203;-71
2022/09/12 00:04:54;;;;;;;23.52;18.77;;;;;;;;;;5052433;28;20221;-71
2022/09/12 00:07:19;;;;;;;25.50;20.20;;;;;;;;;;5050958;28;20218;-71
2022/09/12 00:09:44;;;;;;;24.80;19.27;;;;;;;;;;5052114;28;20203;-72
2022/09/12 00:12:10;;;;;;;24.98;19.38;;;;;;;;;;5051762;28;20216;-71
2022/09/12 00:14:35;;;;;;;24.40;19.63;;;;;;;;;;5049475;28;20219;-71
2022/09/12 00:17:00;;;;;;;25.67;20.48;;;;;;;;;;5045541;28;20220;-69
2022/09/12 00:19:26;;;;;;;26.83;20.67;;;;;;;;;;5032144;28;20224;-69
2022/09/12 00:21:51;;;;;;;25.60;20.13;;;;;;;;;;5008642;28;20683;-69
2022/09/12 00:24:16;;;;;;;23.17;19.17;;;;;;;;;;5018481;28;20673;-69
2022/09/12 00:26:42;;;;;;;24.98;20.27;;;;;;;;;;5002667;28;20299;-70
2022/09/12 00:29:07;;;;;;;24.05;19.90;;;;;;;;;;5005302;28;20241;-69
2022/09/12 00:31:32;;;;;;;26.20;19.38;;;;;;;;;;5013991;28;20269;-69
2022/09/12 00:33:59;;;;;;;24.83;20.10;;;;;;;;;;5013920;28;20216;-70
2022/09/12 00:36:25;;;;;;;26.33;19.98;;;;;;;;;;5009542;28;20216;-69
2022/09/12 00:38:50;;;;;;;24.80;18.80;;;;;;;;;;5004475;28;20224;-69
2022/09/12 00:41:17;;;;;;;26.75;19.67;;;;;;;;;;5009526;28;20286;-69
2022/09/12 00:43:43;;;;;;;22.33;17.80;;;;;;;;;;5019715;28;20219;-70
2022/09/12 00:46:19;;;;;;;24.05;19.10;;;;;;;;;;5020031;28;20227;-69
2022/09/12 00:48:48;;;;;;;24.42;18.83;;;;;;;;;;5020364;28;20203;-70
2022/09/12 00:51:13;;;;;;;21.55;17.48;;;;;;;;;;5018327;28;20222;-69
2022/09/12 00:53:39;;;;;;;23.08;19.13;;;;;;;;;;5014369;28;20203;-70
2022/09/12 00:56:05;;;;;;;25.42;20.05;;;;;;;;;;5008155;28;20692;-69
2022/09/12 00:58:34;;;;;;;23.10;18.50;;;;;;;;;;5012406;28;20228;-69
2022/09/12 01:00:59;;;;;;;25.25;19.90;;;;;;;;;;5019781;28;20215;-69
2022/09/12 01:03:24;;;;;;;25.63;20.48;;;;;;;;;;5018953;28;20678;-69
2022/09/12 01:05:52;;;;;;;27.52;20.55;;;;;;;;;;5021236;28;20212;-69
2022/09/12 01:08:18;;;;;;;29.52;21.90;;;;;;;;;;5020448;28;20250;-69
2022/09/12 01:10:43;;;;;;;28.63;21.02;;;;;;;;;;5019450;28;20235;-69
2022/09/12 01:13:08;;;;;;;27.55;21.27;;;;;;;;;;5020535;28;20265;-69
2022/09/12 01:15:35;;;;;;;28.88;21.98;;;;;;;;;;5016148;28;20208;-69
2022/09/12 01:18:06;;;;;;;26.73;21.90;;;;;;;;;;4998910;28;20228;-67
2022/09/12 01:20:32;;;;;;;27.08;22.00;;;;;;;;;;5013661;28;20224;-69
2022/09/12 01:23:01;;;;;;;30.73;22.73;;;;;;;;;;5019033;28;20223;-69
2022/09/12 01:25:30;;;;;;;30.70;23.45;;;;;;;;;;5020024;28;20223;-69
2022/09/12 01:28:12;;;;;;;29.67;22.95;;;;;;;;;;5018622;28;20242;-69
2022/09/12 01:30:40;;;;;;;31.10;23.90;;;;;;;;;;5019401;28;20219;-69
2022/09/12 01:33:10;;;;;;;29.25;22.98;;;;;;;;;;5018322;28;20219;-69
2022/09/12 01:35:39;;;;;;;28.98;22.25;;;;;;;;;;5019358;28;20227;-69
2022/09/12 01:38:19;;;;;;;33.33;24.52;;;;;;;;;;5010970;28;20236;-69
2022/09/12 01:40:45;;;;;;;31.27;24.00;;;;;;;;;;5007599;28;20631;-69
2022/09/12 01:43:18;;;;;;;34.40;24.02;;;;;;;;;;5012549;28;20246;-69
2022/09/12 01:45:44;;;;;;;32.78;24.85;;;;;;;;;;5017132;28;20212;-69
2022/09/12 01:48:19;;;;;;;31.60;24.83;;;;;;;;;;5019926;28;20741;-70
2022/09/12 01:50:48;;;;;;;31.70;23.77;;;;;;;;;;5020638;28;20302;-69
2022/09/12 01:53:15;;;;;;;30.90;24.80;;;;;;;;;;5014597;28;20228;-69
2022/09/12 01:55:50;;;;;;;34.30;25.45;;;;;;;;;;5018617;28;20211;-69
2022/09/12 01:58:33;;;;;;;34.10;25.75;;;;;;;;;;5018499;28;20265;-69
2022/09/12 02:01:03;;;;;;;32.03;24.20;;;;;;;;;;5013325;28;20208;-69
2022/09/12 02:03:30;;;;;;;33.55;24.60;;;;;;;;;;5011150;28;20214;-69
2022/09/12 02:05:56;;;;;;;34.28;26.13;;;;;;;;;;5011605;28;20894;-69
2022/09/12 02:08:25;;;;;;;37.05;27.73;;;;;;;;;;5016278;28;20222;-69
2022/09/12 02:10:55;;;;;;;39.55;26.70;;;;;;;;;;5019230;28;20211;-70
2022/09/12 02:13:28;;;;;;;32.00;24.63;;;;;;;;;;5018526;28;21247;-70
2022/09/12 02:15:57;;;;;;;36.03;24.65;;;;;;;;;;5018894;28;20289;-69
2022/09/12 02:18:22;;;;;;;33.42;23.80;;;;;;;;;;5015345;28;20374;-69
2022/09/12 02:20:47;;;;;;;36.88;25.05;;;;;;;;;;5017620;28;20746;-69
2022/09/12 02:23:14;;;;;;;38.17;25.80;;;;;;;;;;5015881;28;20230;-69
2022/09/12 02:25:41;;;;;;;33.72;24.92;;;;;;;;;;5011467;28;20310;-69
2022/09/12 02:28:14;;;;;;;35.55;25.52;;;;;;;;;;5009601;28;20218;-69
2022/09/12 02:30:49;;;;;;;36.75;25.55;;;;;;;;;;5015722;28;20239;-69
2022/09/12 02:33:19;;;;;;;35.08;25.95;;;;;;;;;;5018386;28;21131;-69
2022/09/12 02:35:46;;;;;;;33.17;25.58;;;;;;;;;;5019324;28;20298;-69
2022/09/12 02:38:11;;;;;;;34.70;25.85;;;;;;;;;;5001362;28;20816;-69
2022/09/12 02:40:36;;;;;;;37.40;26.48;;;;;;;;;;5018469;28;20224;-69
2022/09/12 02:43:02;;;;;;;41.83;27.63;;;;;;;;;;5021352;28;20207;-69
2022/09/12 02:45:28;;;;;;;39.28;28.15;;;;;;;;;;5020382;28;20265;-69
2022/09/12 02:48:09;;;;;;;36.38;26.67;;;;;;;;;;5016869;28;20219;-69
2022/09/12 02:50:34;;;;;;;39.30;26.85;;;;;;;;;;5013897;28;20211;-69
2022/09/12 02:53:03;;;;;;;40.50;28.20;;;;;;;;;;5015602;28;20209;-69
2022/09/12 02:55:29;;;;;;;38.55;26.77;;;;;;;;;;5023016;28;20618;-69
2022/09/12 02:57:55;;;;;;;37.88;26.60;;;;;;;;;;5021765;28;20426;-69
2022/09/12 03:00:20;;;;;;;40.30;27.65;;;;;;;;;;5023391;28;20215;-69
2022/09/12 03:02:52;;;;;;;36.67;26.50;;;;;;;;;;5021630;28;20216;-69
2022/09/12 03:05:20;;;;;;;38.67;27.70;;;;;;;;;;5021647;28;20683;-69
2022/09/12 03:07:52;;;;;;;39.72;27.30;;;;;;;;;;5020103;28;20211;-69
2022/09/12 03:10:27;;;;;;;42.17;28.75;;;;;;;;;;5013966;28;20223;-69
2022/09/12 03:13:00;;;;;;;44.50;29.00;;;;;;;;;;5016263;28;20223;-69
2022/09/12 03:15:30;;;;;;;44.45;28.70;;;;;;;;;;5018762;28;20226;-68
2022/09/12 03:17:55;;;;;;;38.05;26.77;;;;;;;;;;5017620;28;20236;-69
2022/09/12 03:20:21;;;;;;;39.03;27.23;;;;;;;;;;5003518;28;20570;-68
2022/09/12 03:22:54;;;;;;;44.10;29.42;;;;;;;;;;5020984;28;20257;-69
2022/09/12 03:25:21;;;;;;;42.72;28.23;;;;;;;;;;5020479;28;20207;-69
2022/09/12 03:27:51;;;;;;;37.28;27.00;;;;;;;;;;5021707;28;20222;-69
2022/09/12 03:30:16;;;;;;;38.33;26.55;;;;;;;;;;5015824;28;20320;-69
2022/09/12 03:32:43;;;;;;;37.35;27.30;;;;;;;;;;4996341;28;20640;-69
2022/09/12 03:35:08;;;;;;;38.92;27.77;;;;;;;;;;5013483;28;20214;-69
2022/09/12 03:37:34;;;;;;;39.72;27.60;;;;;;;;;;5012729;28;20634;-68
2022/09/12 03:39:59;;;;;;;41.42;28.80;;;;;;;;;;5002124;28;20299;-69
2022/09/12 03:42:25;;;;;;;42.38;28.65;;;;;;;;;;5003513;28;20214;-68
2022/09/12 03:44:51;;;;;;;40.60;27.52;;;;;;;;;;5021990;28;20737;-69
2022/09/12 03:47:16;;;;;;;39.80;27.25;;;;;;;;;;5022194;28;20275;-69
2022/09/12 03:49:42;;;;;;;40.13;27.48;;;;;;;;;;5021974;28;20499;-69
2022/09/12 03:52:07;;;;;;;42.83;29.35;;;;;;;;;;5012602;28;20212;-69
2022/09/12 03:54:32;;;;;;;45.55;29.45;;;;;;;;;;4996922;28;21044;-68
2022/09/12 03:56:58;;;;;;;40.40;27.50;;;;;;;;;;4995563;28;20217;-68
2022/09/12 03:59:23;;;;;;;41.13;29.05;;;;;;;;;;4994902;28;20253;-68
2022/09/12 04:01:48;;;;;;;43.72;28.20;;;;;;;;;;5019859;28;20504;-68
2022/09/12 04:04:14;;;;;;;41.08;27.58;;;;;;;;;;5021837;28;20306;-69
2022/09/12 04:06:40;;;;;;;45.22;28.33;;;;;;;;;;5021613;28;20211;-69
2022/09/12 04:09:05;;;;;;;42.35;27.40;;;;;;;;;;5004147;28;20223;-68
2022/09/12 04:11:31;;;;;;;45.75;28.52;;;;;;;;;;5022444;28;20215;-68
2022/09/12 04:13:56;;;;;;;43.28;28.88;;;;;;;;;;5021553;28;20216;-68
2022/09/12 04:16:21;;;;;;;45.17;29.90;;;;;;;;;;5017502;28;20702;-68
2022/09/12 04:18:47;;;;;;;41.78;29.13;;;;;;;;;;4995455;28;20266;-69
2022/09/12 04:21:13;;;;;;;41.92;30.02;;;;;;;;;;4994439;28;20216;-68
2022/09/12 04:23:38;;;;;;;48.78;31.30;;;;;;;;;;5017178;28;20214;-68
2022/09/12 04:26:05;;;;;;;43.55;29.13;;;;;;;;;;5021479;28;20220;-68
2022/09/12 04:28:31;;;;;;;46.78;30.42;;;;;;;;;;5017747;28;20240;-68
2022/09/12 04:30:57;;;;;;;49.30;30.33;;;;;;;;;;5002533;28;20247;-68
2022/09/12 04:33:22;;;;;;;45.67;29.02;;;;;;;;;;5019918;28;21094;-68
2022/09/12 04:35:48;;;;;;;46.72;29.85;;;;;;;;;;5019599;28;20204;-68
2022/09/12 04:38:13;;;;;;;52.97;32.10;;;;;;;;;;4999579;28;20286;-69
2022/09/12 04:40:38;;;;;;;54.80;30.98;;;;;;;;;;4995272;28;20320;-68
2022/09/12 04:43:05;;;;;;;48.33;30.65;;;;;;;;;;5011879;28;20314;-68
2022/09/12 04:45:30;;;;;;;45.78;30.25;;;;;;;;;;5016410;28;20208;-68
2022/09/12 04:47:56;;;;;;;46.30;30.40;;;;;;;;;;5021465;28;20222;-69
2022/09/12 04:50:21;;;;;;;46.50;29.90;;;;;;;;;;5020654;28;20598;-68
2022/09/12 04:52:48;;;;;;;46.10;29.65;;;;;;;;;;5006668;28;20243;-68
2022/09/12 04:55:14;;;;;;;51.58;31.05;;;;;;;;;;5001128;28;20212;-69
2022/09/12 04:57:39;;;;;;;51.33;32.03;;;;;;;;;;5001820;28;20223;-69
2022/09/12 05:00:05;;;;;;;52.70;32.75;;;;;;;;;;5001365;28;20220;-69
2022/09/12 05:02:32;;;;;;;53.55;31.52;;;;;;;;;;4994487;28;20765;-69
2022/09/12 05:04:57;;;;;;;53.72;32.72;;;;;;;;;;5012143;28;20738;-69
2022/09/12 05:07:23;;;;;;;48.88;30.98;;;;;;;;;;5006783;28;20840;-69
2022/09/12 05:09:48;;;;;;;52.65;31.23;;;;;;;;;;5000530;28;20240;-69
2022/09/12 05:12:14;;;;;;;46.17;31.30;;;;;;;;;;5019366;28;20216;-68
2022/09/12 05:14:39;;;;;;;48.70;31.92;;;;;;;;;;5021183;28;20519;-69
2022/09/12 05:17:04;;;;;;;54.17;31.58;;;;;;;;;;5024399;28;20212;-69
2022/09/12 05:19:30;;;;;;;51.88;30.98;;;;;;;;;;5010876;28;20254;-69
2022/09/12 05:21:55;;;;;;;50.58;31.73;;;;;;;;;;5009967;28;20223;-69
2022/09/12 05:24:21;;;;;;;54.08;33.63;;;;;;;;;;5008155;28;20925;-71
2022/09/12 05:26:46;;;;;;;51.60;32.05;;;;;;;;;;5015215;28;20262;-74
2022/09/12 05:29:12;;;;;;;53.47;31.25;;;;;;;;;;5020262;28;20699;-71
2022/09/12 05:31:37;;;;;;;50.15;31.88;;;;;;;;;;5018153;28;20212;-72
2022/09/12 05:34:05;;;;;;;49.75;31.75;;;;;;;;;;5015719;28;20199;-69
2022/09/12 05:36:31;;;;;;;62.35;34.95;;;;;;;;;;5021980;28;20671;-70
2022/09/12 05:38:58;;;;;;;53.55;31.30;;;;;;;;;;5019698;28;20223;-70
2022/09/12 05:41:24;;;;;;;53.80;32.45;;;;;;;;;;5020123;28;20228;-70
2022/09/12 05:43:50;;;;;;;51.05;32.25;;;;;;;;;;5019190;28;20211;-70
2022/09/12 05:46:17;;;;;;;54.53;32.22;;;;;;;;;;5019533;28;20203;-68
2022/09/12 05:48:43;;;;;;;55.38;32.25;;;;;;;;;;5019123;28;20210;-69
2022/09/12 05:51:09;;;;;;;55.67;33.20;;;;;;;;;;5020308;28;20301;-70
2022/09/12 05:53:34;;;;;;;59.92;34.03;;;;;;;;;;5019860;28;20602;-70
2022/09/12 05:56:01;;;;;;;54.85;33.38;;;;;;;;;;5026360;28;20242;-70
2022/09/12 05:58:26;;;;;;;56.35;33.38;;;;;;;;;;5027175;28;20224;-69
2022/09/12 06:00:51;;;;;;;51.80;32.33;;;;;;;;;;5029739;28;20374;-73
2022/09/12 06:03:16;;;;;;;56.05;33.65;;;;;;;;;;5015840;28;20209;-70
2022/09/12 06:05:42;;;;;;;63.83;38.67;;;;;;;;;;5006714;28;20964;-69
2022/09/12 06:08:07;;;;;;;56.53;33.78;;;;;;;;;;5005515;28;20311;-69
2022/09/12 06:10:34;;;;;;;60.50;34.35;;;;;;;;;;5024095;28;20215;-70
2022/09/12 06:12:59;;;;;;;63.67;33.60;;;;;;;;;;5024091;28;20310;-69
2022/09/12 06:15:24;;;;;;;52.78;30.65;;;;;;;;;;5025492;28;20626;-70
2022/09/12 06:17:50;;;;;;;58.60;32.90;;;;;;;;;;5016673;28;20221;-69
2022/09/12 06:20:15;;;;;;;63.25;34.33;;;;;;;;;;5024904;28;20700;-71
2022/09/12 06:22:41;;;;;;;59.67;33.42;;;;;;;;;;5034960;28;20651;-70
2022/09/12 06:25:07;;;;;;;59.53;33.92;;;;;;;;;;5042509;28;20222;-68
2022/09/12 06:27:33;;;;;;;58.35;34.97;;;;;;;;;;5030432;28;20208;-70
2022/09/12 06:29:58;;;;;;;60.10;36.63;;;;;;;;;;5026587;28;20602;-69
2022/09/12 06:32:23;;;;;;;65.22;35.67;;;;;;;;;;5026151;28;20692;-68
2022/09/12 06:34:49;;;;;;;61.80;35.47;;;;;;;;;;5025700;28;20207;-68
2022/09/12 06:37:15;;;;;;;68.55;37.03;;;;;;;;;;5025899;28;20212;-73
2022/09/12 06:39:40;;;;;;;64.25;37.22;;;;;;;;;;5022649;28;20219;-72
2022/09/12 06:42:05;;;;;;;56.75;35.28;;;;;;;;;;5023788;28;20208;-70
2022/09/12 06:44:30;;;;;;;57.17;33.45;;;;;;;;;;5026156;28;20231;-72
2022/09/12 06:46:57;;;;;;;51.35;32.78;;;;;;;;;;5026466;28;20534;-71
2022/09/12 06:49:22;;;;;;;61.35;34.67;;;;;;;;;;5023777;28;20578;-72
2022/09/12 06:51:48;;;;;;;52.15;32.08;;;;;;;;;;5026068;28;20210;-72
2022/09/12 06:54:14;;;;;;;56.22;33.10;;;;;;;;;;5026110;28;20208;-72
2022/09/12 06:56:39;;;;;;;56.90;34.10;;;;;;;;;;5024000;28;20227;-72
2022/09/12 06:59:05;;;;;;;56.25;34.80;;;;;;;;;;5025362;28;20251;-71
2022/09/12 07:01:30;;;;;;;63.17;36.00;;;;;;;;;;5026246;28;20203;-72
2022/09/12 07:03:58;;;;;;;56.45;33.72;;;;;;;;;;5025390;28;20278;-72
2022/09/12 07:06:28;;;;;;;56.75;34.10;;;;;;;;;;5025420;28;20242;-73
2022/09/12 07:08:53;;;;;;;57.50;33.80;;;;;;;;;;5023918;28;20212;-73
2022/09/12 07:11:20;;;;;;;53.58;32.75;;;;;;;;;;5024187;28;20215;-72
2022/09/12 07:13:46;;;;;;;61.83;34.95;;;;;;;;;;5024621;28;20204;-73
2022/09/12 07:16:11;;;;;;;55.80;34.05;;;;;;;;;;5023447;28;20231;-72
2022/09/12 07:18:37;;;;;;;52.45;32.65;;;;;;;;;;5025790;28;20255;-73
2022/09/12 07:21:03;;;;;;;48.55;30.75;;;;;;;;;;5024315;28;20647;-72
2022/09/12 07:23:28;;;;;;;48.83;31.30;;;;;;;;;;5023827;28;20220;-73
2022/09/12 07:25:55;;;;;;;46.28;29.85;;;;;;;;;;5026419;28;20208;-73
2022/09/12 07:28:21;;;;;;;45.17;29.83;;;;;;;;;;5035272;28;20289;-73
2022/09/12 07:30:46;;;;;;;45.75;29.45;;;;;;;;;;5048688;28;20211;-73
2022/09/12 07:33:12;;;;;;;42.30;27.13;;;;;;;;;;5046470;28;20264;-73
2022/09/12 07:35:37;;;;;;;41.25;28.42;;;;;;;;;;5027840;28;20212;-74
2022/09/12 07:38:03;;;;;;;41.38;28.40;;;;;;;;;;5028083;28;20223;-73
2022/09/12 07:40:28;;;;;;;44.72;29.85;;;;;;;;;;5027548;28;20223;-73
2022/09/12 07:42:53;;;;;;;40.80;28.73;;;;;;;;;;5028461;28;20208;-74
2022/09/12 07:45:19;;;;;;;41.25;27.88;;;;;;;;;;5028474;28;20929;-74
2022/09/12 07:47:44;;;;;;;43.42;29.33;;;;;;;;;;5029600;28;20212;-70
2022/09/12 07:50:09;;;;;;;42.40;28.08;;;;;;;;;;5028802;28;20212;-73
2022/09/12 07:52:35;;;;;;;44.22;28.60;;;;;;;;;;5041918;28;20704;-75
2022/09/12 07:55:01;;;;;;;40.13;27.45;;;;;;;;;;5048788;28;20222;-74
2022/09/12 07:57:26;;;;;;;37.95;27.10;;;;;;;;;;5048480;28;20290;-74
2022/09/12 07:59:51;;;;;;;37.72;27.80;;;;;;;;;;5048096;28;20313;-75
2022/09/12 08:02:17;;;;;;;43.88;28.42;;;;;;;;;;5048152;28;20222;-74
2022/09/12 08:04:43;;;;;;;42.85;28.40;;;;;;;;;;5046980;28;20293;-76
2022/09/12 08:07:08;;;;;;;43.60;27.92;;;;;;;;;;5047618;28;20607;-76
2022/09/12 08:09:34;;;;;;;41.83;29.10;;;;;;;;;;5048800;28;20253;-75
2022/09/12 08:11:59;;;;;;;42.45;27.77;;;;;;;;;;5047308;28;20417;-74
2022/09/12 08:14:24;;;;;;;39.70;28.83;;;;;;;;;;5045989;28;20899;-71
2022/09/12 08:16:50;;;;;;;38.15;28.05;;;;;;;;;;5044444;28;20230;-77
2022/09/12 08:19:15;;;;;;;41.85;28.98;;;;;;;;;;5026995;28;20255;-74
2022/09/12 08:21:40;;;;;;;39.30;27.67;;;;;;;;;;5028726;28;20805;-77
2022/09/12 08:24:06;;;;;;;38.55;27.88;;;;;;;;;;5028114;28;20231;-75
2022/09/12 08:26:32;;;;;;;39.10;28.33;;;;;;;;;;5027779;28;20261;-75
2022/09/12 08:28:57;;;;;;;37.88;26.83;;;;;;;;;;5029232;28;20231;-75
2022/09/12 08:31:23;;;;;;;39.38;28.38;;;;;;;;;;5027942;28;20219;-75
2022/09/12 08:33:48;;;;;;;38.42;27.15;;;;;;;;;;5027335;28;20227;-74
2022/09/12 08:36:16;;;;;;;39.03;26.08;;;;;;;;;;5025878;28;20211;-73
2022/09/12 08:38:42;;;;;;;37.85;27.05;;;;;;;;;;5006350;28;20303;-74
2022/09/12 08:41:19;;;;;;;36.35;26.25;;;;;;;;;;5006935;28;20239;-73
2022/09/12 08:43:44;;;;;;;37.28;26.52;;;;;;;;;;5008068;28;20212;-75
2022/09/12 08:46:11;;;;;;;35.73;27.93;;;;;;;;;;5007091;28;20454;-73
2022/09/12 08:48:36;;;;;;;32.15;24.48;;;;;;;;;;5005952;28;20601;-74
2022/09/12 08:51:03;;;;;;;35.20;25.70;;;;;;;;;;5008312;28;20216;-74
2022/09/12 08:53:29;;;;;;;34.10;25.33;;;;;;;;;;5026836;28;20269;-73
2022/09/12 08:55:57;;;;;;;33.90;23.88;;;;;;;;;;5027160;28;20294;-74
2022/09/12 08:58:22;;;;;;;35.30;25.38;;;;;;;;;;5025757;28;20227;-77
2022/09/12 09:01:00;;;;;;;32.67;24.02;;;;;;;;;;5027919;28;20208;-80
2022/09/12 09:03:28;;;;;;;34.35;23.88;;;;;;;;;;5025147;28;20219;-77
2022/09/12 09:06:02;;;;;;;34.53;25.08;;;;;;;;;;5025994;28;20694;-74
2022/09/12 09:08:27;;;;;;;33.67;23.70;;;;;;;;;;5025296;28;20675;-82
2022/09/12 09:10:58;;;;;;;33.15;23.85;;;;;;;;;;5027764;28;20429;-80
2022/09/12 09:16:14;;;;;;;31.30;23.02;;;;;;;;;;5025121;28;20214;-73
2022/09/12 09:18:40;;;;;;;30.48;23.45;;;;;;;;;;5026841;28;20219;-75
2022/09/12 09:21:18;;;;;;;29.17;22.08;;;;;;;;;;5027111;28;20273;-75
2022/09/12 09:23:45;;;;;;;32.85;24.05;;;;;;;;;;5025222;28;20208;-82
2022/09/12 09:26:13;;;;;;;27.17;21.92;;;;;;;;;;5023931;28;20216;-72
2022/09/12 09:28:38;;;;;;;28.65;21.63;;;;;;;;;;5035535;28;20298;-73
2022/09/12 09:31:05;;;;;;;29.88;20.60;;;;;;;;;;5008677;28;20221;-73
2022/09/12 09:33:32;;;;;;;26.85;21.05;;;;;;;;;;5006100;28;20307;-73
2022/09/12 09:36:00;;;;;;;29.15;21.98;;;;;;;;;;5007802;28;20208;-77
2022/09/12 09:38:33;;;;;;;28.67;22.73;;;;;;;;;;5024372;28;20298;-76
2022/09/12 09:41:03;;;;;;;27.63;20.92;;;;;;;;;;5020616;28;20231;-76
2022/09/12 09:43:28;;;;;;;26.08;20.70;;;;;;;;;;5025112;28;20620;-77
2022/09/12 09:45:54;;;;;;;25.25;20.25;;;;;;;;;;5026657;28;20227;-75
2022/09/12 09:48:21;;;;;;;24.27;18.83;;;;;;;;;;5025612;28;20234;-76
2022/09/12 09:50:47;;;;;;;22.80;17.73;;;;;;;;;;5024741;28;20208;-72
2022/09/12 09:53:22;;;;;;;27.00;18.67;;;;;;;;;;5024781;28;20358;-72
2022/09/12 09:55:47;;;;;;;23.40;17.67;;;;;;;;;;5012878;28;20204;-73
2022/09/12 09:58:26;;;;;;;21.70;16.98;;;;;;;;;;5006386;28;20232;-73
2022/09/12 10:00:52;;;;;;;22.45;17.80;;;;;;;;;;5013616;28;20308;-73
2022/09/12 10:03:22;;;;;;;22.10;16.90;;;;;;;;;;5024447;28;20559;-73
2022/09/12 10:05:48;;;;;;;19.10;14.48;;;;;;;;;;5025878;28;20713;-72
2022/09/12 10:08:20;;;;;;;17.90;13.60;;;;;;;;;;5008433;28;20295;-70
2022/09/12 10:10:53;;;;;;;18.48;13.57;;;;;;;;;;5027164;28;20214;-73
2022/09/12 10:13:22;;;;;;;19.15;14.82;;;;;;;;;;5025603;28;20208;-72
2022/09/12 10:15:57;;;;;;;14.48;12.73;;;;;;;;;;5024908;28;20207;-72
2022/09/12 10:18:34;;;;;;;15.13;12.32;;;;;;;;;;5024586;28;20223;-72
2022/09/12 10:21:00;;;;;;;19.65;13.43;;;;;;;;;;5025735;28;20294;-73
2022/09/12 10:23:29;;;;;;;18.95;13.32;;;;;;;;;;5024930;28;20212;-73
2022/09/12 10:25:55;;;;;;;17.00;12.70;;;;;;;;;;5025904;28;20759;-73
2022/09/12 10:28:25;;;;;;;14.80;11.75;;;;;;;;;;5028341;28;20223;-71
2022/09/12 10:30:51;;;;;;;16.35;11.05;;;;;;;;;;5025249;28;20709;-71
2022/09/12 10:33:17;;;;;;;18.13;12.25;;;;;;;;;;5024985;28;20207;-72
2022/09/12 10:35:43;;;;;;;16.70;11.15;;;;;;;;;;5025261;28;20242;-71
2022/09/12 10:38:16;;;;;;;18.05;12.30;;;;;;;;;;5024950;28;20249;-72
2022/09/12 10:40:41;;;;;;;14.18;10.18;;;;;;;;;;5024644;28;20235;-71
2022/09/12 10:43:16;;;;;;;10.65;8.73;;;;;;;;;;5024974;28;20211;-73
2022/09/12 10:45:42;;;;;;;10.18;7.78;;;;;;;;;;5024946;28;20318;-72
2022/09/12 10:48:21;;;;;;;11.10;8.30;;;;;;;;;;5025291;28;20639;-71
2022/09/12 10:50:47;;;;;;;11.48;8.48;;;;;;;;;;5026059;28;20221;-72
2022/09/12 10:53:15;;;;;;;11.40;8.70;;;;;;;;;;5024633;28;20664;-73
2022/09/12 10:55:41;;;;;;;12.80;8.85;;;;;;;;;;5024185;28;20207;-73
2022/09/12 10:58:22;;;;;;;13.15;10.13;;;;;;;;;;5025331;28;20240;-72
2022/09/12 11:00:49;;;;;;;9.88;7.82;;;;;;;;;;5017198;28;20217;-72
2022/09/12 11:03:15;;;;;;;11.98;7.70;;;;;;;;;;5027514;28;20453;-73
2022/09/12 11:05:41;;;;;;;11.80;8.85;;;;;;;;;;5029737;28;20604;-73
2022/09/12 11:08:10;;;;;;;12.20;9.32;;;;;;;;;;5028734;28;20226;-71
2022/09/12 11:10:45;;;;;;;12.60;8.23;;;;;;;;;;5028650;28;20212;-73
2022/09/12 11:13:15;;;;;;;13.35;9.73;;;;;;;;;;5027913;28;20629;-71
2022/09/12 11:15:41;;;;;;;10.65;8.02;;;;;;;;;;5028171;28;20200;-73
2022/09/12 11:18:10;;;;;;;11.40;8.48;;;;;;;;;;5028943;28;20285;-68
2022/09/12 11:20:56;;;;;;;12.63;7.68;;;;;;;;;;5029537;28;20621;-74
2022/09/12 11:23:32;;;;;;;10.65;6.82;;;;;;;;;;5028612;28;20235;-72
2022/09/12 11:26:01;;;;;;;10.30;6.45;;;;;;;;;;5030137;28;20321;-74
2022/09/12 11:28:26;;;;;;;8.48;6.32;;;;;;;;;;5036129;28;20227;-70
2022/09/12 11:30:56;;;;;;;9.93;5.68;;;;;;;;;;5048943;28;20760;-70
2022/09/12 11:33:24;;;;;;;7.50;5.43;;;;;;;;;;5048701;28;20223;-67
2022/09/12 11:35:50;;;;;;;6.45;4.28;;;;;;;;;;5047012;28;20211;-68
2022/09/12 11:38:20;;;;;;;8.27;4.78;;;;;;;;;;5028523;28;20269;-68
2022/09/12 11:40:54;;;;;;;9.63;4.28;;;;;;;;;;5027797;28;20227;-68
2022/09/12 11:43:42;;;;;;;8.57;4.53;;;;;;;;;;5028088;28;20218;-68
2022/09/12 11:46:08;;;;;;;8.77;4.82;;;;;;;;;;5028821;28;20212;-66
2022/09/12 11:48:43;;;;;;;6.28;3.28;;;;;;;;;;5028951;28;20706;-73
2022/09/12 11:51:14;;;;;;;6.68;3.42;;;;;;;;;;5029811;28;20749;-73
2022/09/12 11:53:40;;;;;;;5.28;2.65;;;;;;;;;;5048780;28;20238;-73
2022/09/12 11:56:11;;;;;;;5.30;3.20;;;;;;;;;;5047353;28;20231;-72
2022/09/12 11:58:36;;;;;;;3.83;2.42;;;;;;;;;;5047145;28;20314;-74
2022/09/12 12:01:07;;;;;;;5.82;3.42;;;;;;;;;;5032307;28;20300;-70
2022/09/12 12:03:35;;;;;;;6.65;4.15;;;;;;;;;;5008564;28;20220;-71
2022/09/12 12:06:03;;;;;;;6.75;3.85;;;;;;;;;;5006161;28;20870;-70
2022/09/12 12:08:28;;;;;;;7.40;4.60;;;;;;;;;;4991655;28;20212;-72
2022/09/12 12:10:55;;;;;;;8.63;5.63;;;;;;;;;;5006857;28;20216;-70
2022/09/12 12:13:22;;;;;;;6.07;3.95;;;;;;;;;;5006908;28;20220;-70
2022/09/12 12:15:47;;;;;;;8.52;5.88;;;;;;;;;;5007681;28;20201;-70
2022/09/12 12:18:15;;;;;;;8.15;4.93;;;;;;;;;;5021798;28;20224;-70
2022/09/12 12:20:41;;;;;;;7.25;4.38;;;;;;;;;;5027335;28;20208;-71
2022/09/12 12:23:17;;;;;;;8.40;5.47;;;;;;;;;;5026827;28;20215;-68
2022/09/12 12:25:50;;;;;;;7.28;4.13;;;;;;;;;;5026459;28;20287;-69
2022/09/12 12:28:35;;;;;;;7.53;4.75;;;;;;;;;;5030214;28;20204;-70
2022/09/12 12:31:01;;;;;;;6.05;3.25;;;;;;;;;;5027931;28;20218;-70
2022/09/12 12:33:26;;;;;;;7.63;4.55;;;;;;;;;;5026150;28;20591;-70
2022/09/12 12:35:58;;;;;;;6.30;4.15;;;;;;;;;;5028239;28;20570;-72
2022/09/12 12:38:29;;;;;;;8.50;4.35;;;;;;;;;;5027985;28;20299;-70
2022/09/12 12:41:14;;;;;;;5.90;4.38;;;;;;;;;;5025998;28;20239;-70
2022/09/12 12:43:40;;;;;;;6.30;3.78;;;;;;;;;;5027752;28;20212;-70
2022/09/12 12:46:06;;;;;;;6.03;3.70;;;;;;;;;;5026467;28;20299;-71
2022/09/12 12:48:32;;;;;;;5.63;3.78;;;;;;;;;;5027271;28;20598;-71
2022/09/12 12:51:16;;;;;;;4.22;3.10;;;;;;;;;;5028757;28;20226;-71
2022/09/12 12:53:41;;;;;;;5.35;3.38;;;;;;;;;;5027571;28;20614;-69
2022/09/12 12:56:18;;;;;;;5.22;3.78;;;;;;;;;;5027655;28;20234;-69
2022/09/12 12:58:43;;;;;;;4.88;3.50;;;;;;;;;;5026397;28;20314;-69
2022/09/12 13:01:08;;;;;;;6.93;3.38;;;;;;;;;;5025331;28;20290;-69
2022/09/12 13:03:34;;;;;;;7.03;3.42;;;;;;;;;;5027731;28;20200;-70
2022/09/12 13:06:01;;;;;;;7.82;3.53;;;;;;;;;;5027883;28;20289;-70
2022/09/12 13:08:28;;;;;;;7.28;4.07;;;;;;;;;;5025334;28;20207;-70
2022/09/12 13:10:56;;;;;;;5.93;3.40;;;;;;;;;;5026347;28;20421;-70
2022/09/12 13:13:27;;;;;;;6.80;3.20;;;;;;;;;;5026120;28;20298;-69
2022/09/12 13:15:53;;;;;;;6.80;4.13;;;;;;;;;;5025631;28;20709;-70
2022/09/12 13:18:39;;;;;;;6.85;3.72;;;;;;;;;;5026643;28;20227;-70
2022/09/12 13:21:07;;;;;;;7.95;3.50;;;;;;;;;;5027158;28;20236;-70
2022/09/12 13:23:34;;;;;;;5.43;3.50;;;;;;;;;;5027339;28;20207;-70
2022/09/12 13:25:59;;;;;;;7.60;3.72;;;;;;;;;;5029708;28;20299;-70
2022/09/12 13:28:25;;;;;;;5.10;3.70;;;;;;;;;;5036959;28;20309;-69
2022/09/12 13:30:58;;;;;;;4.80;3.30;;;;;;;;;;5050077;28;20211;-70
2022/09/12 13:33:31;;;;;;;5.88;3.40;;;;;;;;;;5050169;28;20203;-69
2022/09/12 13:36:03;;;;;;;6.25;3.00;;;;;;;;;;5047966;28;20285;-70
2022/09/12 13:38:33;;;;;;;4.63;3.10;;;;;;;;;;5030306;28;20224;-69
2022/09/12 13:41:06;;;;;;;6.95;3.35;;;;;;;;;;5029411;28;20253;-70
2022/09/12 13:43:36;;;;;;;5.45;3.20;;;;;;;;;;5027984;28;20215;-70
2022/09/12 13:46:02;;;;;;;4.68;2.83;;;;;;;;;;5029021;28;20601;-68
2022/09/12 13:48:27;;;;;;;6.10;2.67;;;;;;;;;;5030337;28;20262;-70
2022/09/12 13:50:53;;;;;;;5.45;3.03;;;;;;;;;;5029763;28;20695;-70
2022/09/12 13:53:20;;;;;;;4.00;2.78;;;;;;;;;;5050048;28;20574;-70
2022/09/12 13:55:47;;;;;;;5.38;3.30;;;;;;;;;;5050811;28;20670;-70
2022/09/12 13:58:19;;;;;;;5.25;2.78;;;;;;;;;;5048493;28;20215;-70
2022/09/12 14:00:45;;;;;;;5.40;3.15;;;;;;;;;;5019349;28;20812;-70
2022/09/12 14:06:11;;;;;;;5.32;3.10;;;;;;;;;;5025125;28;20886;-71
2022/09/12 14:08:40;;;;;;;4.22;2.60;;;;;;;;;;5026423;28;20215;-70
2022/09/12 14:11:07;;;;;;;3.72;2.45;;;;;;;;;;5026059;28;20246;-68
2022/09/12 14:13:33;;;;;;;6.03;2.90;;;;;;;;;;5025605;28;20216;-68
2022/09/12 14:15:58;;;;;;;4.75;2.88;;;;;;;;;;5019221;28;20266;-68
2022/09/12 14:18:23;;;;;;;5.18;3.20;;;;;;;;;;5021537;28;20653;-66
2022/09/12 14:20:51;;;;;;;4.18;3.00;;;;;;;;;;5026254;28;20219;-65
2022/09/12 14:23:18;;;;;;;5.68;2.70;;;;;;;;;;5024717;28;20258;-65
2022/09/12 14:25:46;;;;;;;5.15;2.72;;;;;;;;;;5024327;28;20691;-65
2022/09/12 14:28:12;;;;;;;4.53;2.47;;;;;;;;;;5028467;28;20679;-66
2022/09/12 14:30:37;;;;;;;7.00;3.13;;;;;;;;;;5025101;28;20250;-68